Time;durP1;ratioP1;P1;durP2;ratioP2;P2;SDS_P1;SDS_P2;PMS_P1;PMS_P2;Temp;Humidity;BMP_temperature;BMP_pressure;BME280_temperature;BME280_humidity;BME280_pressure;Samples;Min_cycle;Max_cycle;Signal;HPM_P1;HPM_P2
2022/01/27 00:03:27;;;;;;;160.03;71.50;;;;;;;;;;4955436;28;20512;-81
2022/01/27 00:06:16;;;;;;;167.70;75.50;;;;;;;;;;4956810;28;20422;-81
2022/01/27 00:08:48;;;;;;;184.57;82.80;;;;;;;;;;4954295;28;20430;-81
2022/01/27 00:11:15;;;;;;;176.17;83.20;;;;;;;;;;4954547;28;21040;-81
2022/01/27 00:13:44;;;;;;;179.60;82.03;;;;;;;;;;4952355;28;21108;-81
2022/01/27 00:16:14;;;;;;;193.40;85.83;;;;;;;;;;4951864;28;20430;-81
2022/01/27 00:18:41;;;;;;;199.30;89.77;;;;;;;;;;4953721;28;20863;-81
2022/01/27 00:21:07;;;;;;;176.07;84.30;;;;;;;;;;4952750;28;20434;-82
2022/01/27 00:23:34;;;;;;;191.80;86.40;;;;;;;;;;4953679;28;20441;-82
2022/01/27 00:26:00;;;;;;;175.53;81.70;;;;;;;;;;4955136;28;20426;-81
2022/01/27 00:28:27;;;;;;;199.03;89.33;;;;;;;;;;4952019;28;20441;-81
2022/01/27 00:30:54;;;;;;;181.07;83.97;;;;;;;;;;4954667;28;20537;-81
2022/01/27 00:33:20;;;;;;;205.33;88.97;;;;;;;;;;4956058;28;20505;-81
2022/01/27 00:35:46;;;;;;;184.70;83.67;;;;;;;;;;4954654;28;20422;-81
2022/01/27 00:38:12;;;;;;;181.13;80.80;;;;;;;;;;4953480;28;20423;-81
2022/01/27 00:40:38;;;;;;;188.10;85.63;;;;;;;;;;4953417;28;20509;-81
2022/01/27 00:43:05;;;;;;;177.13;84.07;;;;;;;;;;4971845;28;20425;-81
2022/01/27 00:45:32;;;;;;;202.97;86.80;;;;;;;;;;4956648;28;21368;-81
2022/01/27 00:48:02;;;;;;;200.43;88.27;;;;;;;;;;4952969;28;20433;-81
2022/01/27 00:50:29;;;;;;;191.97;84.77;;;;;;;;;;4953871;28;20441;-81
2022/01/27 00:52:57;;;;;;;187.37;85.30;;;;;;;;;;4953574;28;20415;-81
2022/01/27 00:55:25;;;;;;;198.30;88.47;;;;;;;;;;4953590;28;20418;-81
2022/01/27 00:58:06;;;;;;;201.87;88.97;;;;;;;;;;4953678;28;20430;-81
2022/01/27 01:00:37;;;;;;;163.60;69.20;;;;;;;;;;4954815;28;20522;-81
2022/01/27 01:08:02;;;;;;;182.83;76.87;;;;;;;;;;4956678;28;21145;-81
2022/01/27 01:15:44;;;;;;;196.13;79.87;;;;;;;;;;4960963;28;20398;-81
2022/01/27 01:31:55;;;;;;;193.10;84.60;;;;;;;;;;4960825;28;20452;-80
2022/01/27 01:34:25;;;;;;;190.37;83.70;;;;;;;;;;4957942;28;20438;-80
2022/01/27 01:37:03;;;;;;;182.23;81.13;;;;;;;;;;4960485;28;20445;-80
2022/01/27 01:39:31;;;;;;;194.87;83.33;;;;;;;;;;4959544;28;20730;-80
2022/01/27 01:41:57;;;;;;;203.40;83.20;;;;;;;;;;4959787;28;20424;-80
2022/01/27 01:44:24;;;;;;;193.50;85.20;;;;;;;;;;4958457;28;20434;-80
2022/01/27 01:46:50;;;;;;;228.57;94.53;;;;;;;;;;4958900;28;20441;-80
2022/01/27 01:49:17;;;;;;;215.23;88.87;;;;;;;;;;4959360;28;20448;-80
2022/01/27 01:51:43;;;;;;;206.10;86.77;;;;;;;;;;4959863;28;20546;-80
2022/01/27 01:54:10;;;;;;;207.20;85.17;;;;;;;;;;4958097;28;20474;-80
2022/01/27 01:56:37;;;;;;;204.03;87.73;;;;;;;;;;4971087;28;21462;-80
2022/01/27 01:59:05;;;;;;;211.77;84.10;;;;;;;;;;4956173;28;20437;-80
2022/01/27 02:01:32;;;;;;;175.63;75.93;;;;;;;;;;4954414;28;20437;-79
2022/01/27 02:04:02;;;;;;;196.27;78.30;;;;;;;;;;4955843;28;20433;-78
2022/01/27 02:06:35;;;;;;;189.47;76.43;;;;;;;;;;4954891;28;20437;-78
2022/01/27 02:09:12;;;;;;;185.37;74.60;;;;;;;;;;4956269;28;21355;-78
2022/01/27 02:19:54;;;;;;;174.90;71.33;;;;;;;;;;4957001;28;20428;-78
2022/01/27 02:22:21;;;;;;;171.20;65.50;;;;;;;;;;4957661;28;20577;-79
2022/01/27 02:24:47;;;;;;;154.23;64.30;;;;;;;;;;4954863;28;20442;-78
2022/01/27 02:27:14;;;;;;;155.73;62.70;;;;;;;;;;4954649;28;20422;-78
2022/01/27 02:29:41;;;;;;;150.83;62.23;;;;;;;;;;4955164;28;21319;-78
2022/01/27 02:32:07;;;;;;;148.13;61.97;;;;;;;;;;4956333;28;20596;-79
2022/01/27 02:34:33;;;;;;;164.57;64.13;;;;;;;;;;4973770;28;20513;-78
2022/01/27 02:36:59;;;;;;;155.87;64.07;;;;;;;;;;4959247;28;20502;-78
2022/01/27 02:39:26;;;;;;;156.50;61.17;;;;;;;;;;4957912;28;20481;-78
2022/01/27 02:41:52;;;;;;;149.67;60.63;;;;;;;;;;4955446;28;20425;-78
2022/01/27 02:44:38;;;;;;;155.17;62.13;;;;;;;;;;4958146;28;20562;-78
2022/01/27 02:47:04;;;;;;;145.30;60.73;;;;;;;;;;4954723;28;20426;-79
2022/01/27 02:49:31;;;;;;;155.07;64.37;;;;;;;;;;4958186;28;20426;-78
2022/01/27 02:51:57;;;;;;;159.67;61.67;;;;;;;;;;4956730;28;20454;-78
2022/01/27 02:54:23;;;;;;;157.73;63.57;;;;;;;;;;4953859;28;20421;-79
2022/01/27 02:56:49;;;;;;;161.13;63.87;;;;;;;;;;4953251;28;20414;-79
2022/01/27 02:59:16;;;;;;;142.47;59.27;;;;;;;;;;4957183;28;20476;-78
2022/01/27 03:01:46;;;;;;;149.80;61.07;;;;;;;;;;4954745;28;20422;-78
2022/01/27 03:04:12;;;;;;;173.13;66.70;;;;;;;;;;4956474;28;20524;-79
2022/01/27 03:06:38;;;;;;;167.23;65.80;;;;;;;;;;4968875;28;20510;-78
2022/01/27 03:09:04;;;;;;;152.60;59.10;;;;;;;;;;4958388;28;20505;-79
2022/01/27 03:11:50;;;;;;;156.23;62.87;;;;;;;;;;4955096;28;20454;-79
2022/01/27 03:14:18;;;;;;;158.50;62.67;;;;;;;;;;4970908;28;20419;-79
2022/01/27 03:16:44;;;;;;;165.00;64.93;;;;;;;;;;4955075;28;20462;-79
2022/01/27 03:19:10;;;;;;;156.73;63.80;;;;;;;;;;4952888;28;20926;-78
2022/01/27 03:21:37;;;;;;;156.33;64.03;;;;;;;;;;4956255;28;20426;-79
2022/01/27 03:24:03;;;;;;;180.57;70.13;;;;;;;;;;4969902;28;21272;-79
2022/01/27 03:26:30;;;;;;;167.27;64.20;;;;;;;;;;4956268;28;20425;-79
2022/01/27 03:28:56;;;;;;;162.63;63.47;;;;;;;;;;4956661;28;21263;-78
2022/01/27 03:31:22;;;;;;;178.43;68.50;;;;;;;;;;4954963;28;21096;-78
2022/01/27 03:33:48;;;;;;;159.43;63.77;;;;;;;;;;4954786;28;20473;-79
2022/01/27 03:36:15;;;;;;;183.87;70.60;;;;;;;;;;4969839;28;21091;-79
2022/01/27 03:38:41;;;;;;;157.30;62.93;;;;;;;;;;4952271;28;20418;-79
2022/01/27 03:41:08;;;;;;;194.90;70.03;;;;;;;;;;4957484;28;20423;-78
2022/01/27 03:43:36;;;;;;;166.97;64.30;;;;;;;;;;4950624;28;20430;-79
2022/01/27 03:46:02;;;;;;;170.97;65.27;;;;;;;;;;4953020;28;20422;-78
2022/01/27 03:48:29;;;;;;;168.03;64.27;;;;;;;;;;4955114;28;20529;-79
2022/01/27 03:50:55;;;;;;;162.90;64.10;;;;;;;;;;4953044;28;20461;-78
2022/01/27 03:53:21;;;;;;;171.97;63.77;;;;;;;;;;4956586;28;20425;-78
2022/01/27 03:55:47;;;;;;;176.77;64.70;;;;;;;;;;4953449;28;20426;-79
2022/01/27 03:58:13;;;;;;;168.77;63.83;;;;;;;;;;4955148;28;21218;-79
2022/01/27 04:00:39;;;;;;;183.67;68.50;;;;;;;;;;4955271;28;20496;-79
2022/01/27 04:03:09;;;;;;;192.70;69.23;;;;;;;;;;4953802;28;20435;-79
2022/01/27 04:05:38;;;;;;;195.60;67.10;;;;;;;;;;4972107;28;20422;-79
2022/01/27 04:08:05;;;;;;;190.50;67.43;;;;;;;;;;4954922;28;21298;-79
2022/01/27 04:10:32;;;;;;;176.80;62.63;;;;;;;;;;4954877;28;20430;-79
2022/01/27 04:12:58;;;;;;;175.70;64.17;;;;;;;;;;4955798;28;20454;-78
2022/01/27 04:15:24;;;;;;;205.50;69.03;;;;;;;;;;4968481;28;20414;-79
2022/01/27 04:17:50;;;;;;;192.97;66.40;;;;;;;;;;4957553;28;21366;-79
2022/01/27 04:20:16;;;;;;;194.17;68.73;;;;;;;;;;4954850;28;20533;-79
2022/01/27 04:22:42;;;;;;;184.70;65.07;;;;;;;;;;4950117;28;20439;-79
2022/01/27 04:25:09;;;;;;;189.07;65.20;;;;;;;;;;4951820;28;20441;-79
2022/01/27 04:27:38;;;;;;;178.97;64.00;;;;;;;;;;4971025;28;20422;-79
2022/01/27 04:30:10;;;;;;;174.13;61.83;;;;;;;;;;4955301;28;21208;-79
2022/01/27 04:32:38;;;;;;;166.20;61.43;;;;;;;;;;4953301;28;21375;-79
2022/01/27 04:35:07;;;;;;;166.67;59.90;;;;;;;;;;4951148;28;20512;-79
2022/01/27 04:37:38;;;;;;;187.13;64.43;;;;;;;;;;4953974;28;21000;-80
2022/01/27 04:40:14;;;;;;;199.70;66.33;;;;;;;;;;4953282;28;20497;-79
2022/01/27 04:45:26;;;;;;;186.67;65.20;;;;;;;;;;4953650;28;20559;-79
2022/01/27 04:48:02;;;;;;;158.73;59.27;;;;;;;;;;4955240;28;20516;-79
2022/01/27 04:50:28;;;;;;;170.10;60.90;;;;;;;;;;4953208;28;20441;-79
2022/01/27 04:52:56;;;;;;;172.90;59.77;;;;;;;;;;4956279;28;20458;-79
2022/01/27 04:55:24;;;;;;;159.57;60.73;;;;;;;;;;4954224;28;20430;-79
2022/01/27 04:58:04;;;;;;;171.53;59.17;;;;;;;;;;4949817;28;20434;-79
2022/01/27 05:00:30;;;;;;;140.90;55.10;;;;;;;;;;4950927;28;20557;-79
2022/01/27 05:02:59;;;;;;;148.50;54.17;;;;;;;;;;4953171;28;20466;-79
2022/01/27 05:05:25;;;;;;;140.03;53.43;;;;;;;;;;4950190;28;20434;-79
2022/01/27 05:08:00;;;;;;;151.37;53.30;;;;;;;;;;4955258;28;20635;-78
2022/01/27 05:10:32;;;;;;;131.27;51.37;;;;;;;;;;4954494;28;20433;-79
2022/01/27 05:13:07;;;;;;;138.67;51.30;;;;;;;;;;4955616;28;20453;-79
2022/01/27 05:15:34;;;;;;;143.47;52.37;;;;;;;;;;4952472;28;20420;-79
2022/01/27 05:18:00;;;;;;;144.70;51.63;;;;;;;;;;4954582;28;20505;-79
2022/01/27 05:20:26;;;;;;;133.73;52.07;;;;;;;;;;4951344;28;21311;-79
2022/01/27 05:22:53;;;;;;;130.90;49.07;;;;;;;;;;4954556;28;20462;-79
2022/01/27 05:25:19;;;;;;;131.30;50.13;;;;;;;;;;4950609;28;20521;-79
2022/01/27 05:27:45;;;;;;;138.47;50.57;;;;;;;;;;4949757;28;20502;-79
2022/01/27 05:30:11;;;;;;;127.40;49.40;;;;;;;;;;4954795;28;20477;-79
2022/01/27 05:32:37;;;;;;;123.43;46.97;;;;;;;;;;4955172;28;20480;-79
2022/01/27 05:35:03;;;;;;;132.13;49.50;;;;;;;;;;4955465;28;20454;-79
2022/01/27 05:37:30;;;;;;;123.60;48.50;;;;;;;;;;4953467;28;20421;-79
2022/01/27 05:39:56;;;;;;;129.07;48.00;;;;;;;;;;4954980;28;20421;-79
2022/01/27 05:42:22;;;;;;;135.77;49.00;;;;;;;;;;4954877;28;20430;-79
2022/01/27 05:44:48;;;;;;;137.13;48.80;;;;;;;;;;4955883;28;20438;-79
2022/01/27 05:47:14;;;;;;;141.63;49.53;;;;;;;;;;4952392;28;20438;-79
2022/01/27 05:49:40;;;;;;;138.07;51.60;;;;;;;;;;4952423;28;20958;-79
2022/01/27 05:52:06;;;;;;;129.70;48.37;;;;;;;;;;4952200;28;20457;-79
2022/01/27 05:54:34;;;;;;;122.20;49.07;;;;;;;;;;4955621;28;20468;-79
2022/01/27 05:57:00;;;;;;;131.33;49.90;;;;;;;;;;4954585;28;21322;-79
2022/01/27 05:59:26;;;;;;;120.27;47.77;;;;;;;;;;4956895;28;20445;-79
2022/01/27 06:01:52;;;;;;;124.17;48.30;;;;;;;;;;4955816;28;20490;-79
2022/01/27 06:04:18;;;;;;;117.30;46.23;;;;;;;;;;4957948;28;22035;-79
2022/01/27 06:06:45;;;;;;;126.90;49.30;;;;;;;;;;4968544;28;20922;-79
2022/01/27 06:09:11;;;;;;;131.00;48.33;;;;;;;;;;4956271;28;20430;-79
2022/01/27 06:11:37;;;;;;;123.40;46.87;;;;;;;;;;4958060;28;20450;-79
2022/01/27 06:14:03;;;;;;;127.77;48.93;;;;;;;;;;4957079;28;21326;-80
2022/01/27 06:16:29;;;;;;;130.80;47.53;;;;;;;;;;4956162;28;20426;-79
2022/01/27 06:18:56;;;;;;;128.47;49.27;;;;;;;;;;4955347;28;20430;-79
2022/01/27 06:21:22;;;;;;;141.87;52.00;;;;;;;;;;4957926;28;20430;-79
2022/01/27 06:23:48;;;;;;;134.30;49.87;;;;;;;;;;4958170;28;21302;-79
2022/01/27 06:26:15;;;;;;;121.37;48.30;;;;;;;;;;4955729;28;20548;-80
2022/01/27 06:28:41;;;;;;;119.20;46.17;;;;;;;;;;4969991;28;20516;-79
2022/01/27 06:31:07;;;;;;;123.83;47.33;;;;;;;;;;4955055;28;20457;-80
2022/01/27 06:33:34;;;;;;;136.80;51.80;;;;;;;;;;4958297;28;21168;-80
2022/01/27 06:36:00;;;;;;;121.80;48.17;;;;;;;;;;4954996;28;20477;-80
2022/01/27 06:38:27;;;;;;;132.20;51.07;;;;;;;;;;4955166;28;20429;-80
2022/01/27 06:40:53;;;;;;;124.30;48.57;;;;;;;;;;4954956;28;20438;-81
2022/01/27 06:43:19;;;;;;;130.33;47.30;;;;;;;;;;4953954;28;20501;-80
2022/01/27 06:45:45;;;;;;;118.23;46.57;;;;;;;;;;4954015;28;20430;-80
2022/01/27 06:48:12;;;;;;;134.33;50.70;;;;;;;;;;4951932;28;20430;-80
2022/01/27 06:50:39;;;;;;;139.20;50.50;;;;;;;;;;4953855;28;20415;-80
2022/01/27 06:53:05;;;;;;;137.63;51.47;;;;;;;;;;4957711;28;20456;-79
2022/01/27 06:55:31;;;;;;;125.73;50.17;;;;;;;;;;4954175;28;21117;-80
2022/01/27 06:57:57;;;;;;;140.10;51.30;;;;;;;;;;4951762;28;20438;-80
2022/01/27 07:00:24;;;;;;;127.67;49.07;;;;;;;;;;4953617;28;20918;-80
2022/01/27 07:02:50;;;;;;;124.37;50.80;;;;;;;;;;4954511;28;20496;-80
2022/01/27 07:05:17;;;;;;;131.20;51.73;;;;;;;;;;4954974;28;20981;-80
2022/01/27 07:07:43;;;;;;;134.03;50.67;;;;;;;;;;4953940;28;20454;-79
2022/01/27 07:10:10;;;;;;;122.47;50.07;;;;;;;;;;4951900;28;20497;-79
2022/01/27 07:12:39;;;;;;;119.20;47.50;;;;;;;;;;4954430;28;20561;-79
2022/01/27 07:15:05;;;;;;;147.60;51.10;;;;;;;;;;4953310;28;20430;-79
2022/01/27 07:17:31;;;;;;;154.80;49.20;;;;;;;;;;4969519;28;20415;-80
2022/01/27 07:19:57;;;;;;;143.30;49.77;;;;;;;;;;4956006;28;20422;-79
2022/01/27 07:22:23;;;;;;;152.13;52.70;;;;;;;;;;4955830;28;20421;-79
2022/01/27 07:24:49;;;;;;;172.70;54.80;;;;;;;;;;4953627;28;20427;-79
2022/01/27 07:27:17;;;;;;;151.87;51.33;;;;;;;;;;4951395;28;20437;-79
2022/01/27 07:29:44;;;;;;;146.90;50.37;;;;;;;;;;4949533;28;20417;-79
2022/01/27 07:32:10;;;;;;;165.27;53.53;;;;;;;;;;4954252;28;20482;-79
2022/01/27 07:34:36;;;;;;;192.00;55.80;;;;;;;;;;4953632;28;21259;-79
2022/01/27 07:37:03;;;;;;;175.63;54.47;;;;;;;;;;4953866;28;20426;-79
2022/01/27 07:39:29;;;;;;;171.93;56.47;;;;;;;;;;4953573;28;20434;-79
2022/01/27 07:41:57;;;;;;;173.93;57.87;;;;;;;;;;4949900;28;21183;-77
2022/01/27 07:44:24;;;;;;;169.80;55.93;;;;;;;;;;4950147;28;20513;-76
2022/01/27 07:46:50;;;;;;;149.13;52.77;;;;;;;;;;4952435;28;20426;-76
2022/01/27 07:49:16;;;;;;;154.77;53.00;;;;;;;;;;4946658;28;21380;-77
2022/01/27 07:51:42;;;;;;;150.07;52.50;;;;;;;;;;4958114;28;20569;-77
2022/01/27 07:54:08;;;;;;;141.70;51.80;;;;;;;;;;4951393;28;20406;-76
2022/01/27 07:56:34;;;;;;;150.87;53.87;;;;;;;;;;4952718;28;20418;-77
2022/01/27 07:59:00;;;;;;;158.77;54.00;;;;;;;;;;4951407;28;20430;-77
2022/01/27 08:01:26;;;;;;;173.93;56.63;;;;;;;;;;4953636;28;20438;-77
2022/01/27 08:03:52;;;;;;;162.93;57.27;;;;;;;;;;4953420;28;20434;-77
2022/01/27 08:06:19;;;;;;;151.60;51.37;;;;;;;;;;4951409;28;20426;-77
2022/01/27 08:08:49;;;;;;;138.53;52.60;;;;;;;;;;4952599;28;21286;-77
2022/01/27 08:11:15;;;;;;;161.30;56.60;;;;;;;;;;4953601;28;21174;-77
2022/01/27 08:13:41;;;;;;;156.47;56.33;;;;;;;;;;4965026;28;21520;-77
2022/01/27 08:16:07;;;;;;;146.23;54.20;;;;;;;;;;4950923;28;21018;-77
2022/01/27 08:18:33;;;;;;;166.57;58.57;;;;;;;;;;4964476;28;21108;-77
2022/01/27 08:20:59;;;;;;;167.77;56.57;;;;;;;;;;4953828;28;20438;-76
2022/01/27 08:23:25;;;;;;;182.60;63.60;;;;;;;;;;4950671;28;20473;-77
2022/01/27 08:26:02;;;;;;;181.27;61.13;;;;;;;;;;4949191;28;20532;-77
2022/01/27 08:28:35;;;;;;;193.27;62.63;;;;;;;;;;4952191;28;20449;-77
2022/01/27 08:31:03;;;;;;;193.57;62.37;;;;;;;;;;4952986;28;21396;-77
2022/01/27 08:33:29;;;;;;;169.60;58.90;;;;;;;;;;4948908;28;21147;-77
2022/01/27 08:35:58;;;;;;;194.03;63.97;;;;;;;;;;4952889;28;21322;-77
2022/01/27 08:38:24;;;;;;;186.67;59.60;;;;;;;;;;4949842;28;20508;-77
2022/01/27 08:40:51;;;;;;;189.43;63.07;;;;;;;;;;4948074;28;20430;-77
2022/01/27 08:43:17;;;;;;;201.23;65.23;;;;;;;;;;4952858;28;20493;-76
2022/01/27 08:45:44;;;;;;;191.97;61.13;;;;;;;;;;4952911;28;20534;-76
2022/01/27 08:48:13;;;;;;;180.37;61.03;;;;;;;;;;4951507;28;20529;-76
2022/01/27 08:50:39;;;;;;;208.07;67.23;;;;;;;;;;4964813;28;20485;-77
2022/01/27 08:53:05;;;;;;;201.43;63.80;;;;;;;;;;4952159;28;20640;-77
2022/01/27 08:55:32;;;;;;;185.23;61.10;;;;;;;;;;4951814;28;20533;-77
2022/01/27 08:57:58;;;;;;;189.40;62.00;;;;;;;;;;4952419;28;20458;-77
2022/01/27 09:00:24;;;;;;;181.97;61.47;;;;;;;;;;4950247;28;20426;-77
2022/01/27 09:02:50;;;;;;;180.27;60.67;;;;;;;;;;4951779;28;20430;-77
2022/01/27 09:05:16;;;;;;;175.43;58.83;;;;;;;;;;4950904;28;21143;-77
2022/01/27 09:07:42;;;;;;;159.23;57.73;;;;;;;;;;4951658;28;20429;-77
2022/01/27 09:10:08;;;;;;;158.07;55.97;;;;;;;;;;4953775;28;20485;-77
2022/01/27 09:12:35;;;;;;;164.73;56.40;;;;;;;;;;4953595;28;20458;-77
2022/01/27 09:15:02;;;;;;;160.80;57.27;;;;;;;;;;4949635;28;21058;-77
2022/01/27 09:17:30;;;;;;;163.43;57.20;;;;;;;;;;4951644;28;20417;-76
2022/01/27 09:19:57;;;;;;;168.30;57.27;;;;;;;;;;4952386;28;20442;-77
2022/01/27 09:22:23;;;;;;;168.03;57.00;;;;;;;;;;4948658;28;20425;-77
2022/01/27 09:24:55;;;;;;;168.87;59.13;;;;;;;;;;4953289;28;21322;-77
2022/01/27 09:27:21;;;;;;;178.20;61.73;;;;;;;;;;4947199;28;21218;-77
2022/01/27 09:29:48;;;;;;;156.73;56.00;;;;;;;;;;4957753;28;21170;-77
2022/01/27 09:32:15;;;;;;;152.00;56.63;;;;;;;;;;4956607;28;21119;-77
2022/01/27 09:34:42;;;;;;;174.30;62.70;;;;;;;;;;4956883;28;21280;-77
2022/01/27 09:37:08;;;;;;;171.60;58.83;;;;;;;;;;4955573;28;20426;-77
2022/01/27 09:39:35;;;;;;;166.77;59.83;;;;;;;;;;4956050;28;21255;-77
2022/01/27 09:42:01;;;;;;;162.53;58.70;;;;;;;;;;4955953;28;20513;-77
2022/01/27 09:44:31;;;;;;;158.20;57.30;;;;;;;;;;4955817;28;20429;-77
2022/01/27 09:47:00;;;;;;;173.87;60.47;;;;;;;;;;4954025;28;20426;-77
2022/01/27 09:49:49;;;;;;;157.47;58.23;;;;;;;;;;4954724;28;20533;-77
2022/01/27 09:52:16;;;;;;;151.80;56.83;;;;;;;;;;4955903;28;20446;-77
2022/01/27 09:54:45;;;;;;;161.57;58.13;;;;;;;;;;4971844;28;20421;-77
2022/01/27 09:57:11;;;;;;;150.60;56.97;;;;;;;;;;4957011;28;20496;-77
2022/01/27 09:59:37;;;;;;;162.23;59.27;;;;;;;;;;4950600;28;20490;-77
2022/01/27 10:02:05;;;;;;;147.47;56.47;;;;;;;;;;4953351;28;20422;-78
2022/01/27 10:05:02;;;;;;;166.50;57.90;;;;;;;;;;4955909;28;20469;-77
2022/01/27 10:07:32;;;;;;;165.03;57.53;;;;;;;;;;4942790;28;20428;-77
2022/01/27 10:10:04;;;;;;;180.57;62.70;;;;;;;;;;4954629;28;20437;-77
2022/01/27 10:12:33;;;;;;;162.53;58.80;;;;;;;;;;4955099;28;20457;-77
2022/01/27 10:15:00;;;;;;;166.43;57.73;;;;;;;;;;4955155;28;20437;-77
2022/01/27 10:17:28;;;;;;;171.97;59.93;;;;;;;;;;4955790;28;21154;-77
2022/01/27 10:19:55;;;;;;;176.43;58.57;;;;;;;;;;4955103;28;20426;-77
2022/01/27 10:22:21;;;;;;;175.30;60.40;;;;;;;;;;4953941;28;21310;-76
2022/01/27 10:24:59;;;;;;;168.83;60.33;;;;;;;;;;4969216;28;20433;-77
2022/01/27 10:32:52;;;;;;;158.70;57.00;;;;;;;;;;4955275;28;21577;-76
2022/01/27 10:35:20;;;;;;;162.97;55.43;;;;;;;;;;4954397;28;20418;-77
2022/01/27 10:37:54;;;;;;;156.00;54.23;;;;;;;;;;4953874;28;20426;-77
2022/01/27 10:40:21;;;;;;;168.20;55.93;;;;;;;;;;4954428;28;20448;-77
2022/01/27 10:42:57;;;;;;;155.87;55.10;;;;;;;;;;4953534;28;20430;-78
2022/01/27 10:45:24;;;;;;;161.73;57.83;;;;;;;;;;4953084;28;20426;-77
2022/01/27 10:47:50;;;;;;;169.87;57.93;;;;;;;;;;4955210;28;20421;-77
2022/01/27 10:50:16;;;;;;;163.73;58.57;;;;;;;;;;4952287;28;20406;-77
2022/01/27 10:52:51;;;;;;;182.63;59.33;;;;;;;;;;4953917;28;20461;-77
2022/01/27 10:55:19;;;;;;;160.53;55.17;;;;;;;;;;4953080;28;21290;-77
2022/01/27 10:57:50;;;;;;;182.77;59.13;;;;;;;;;;4953584;28;20423;-76
2022/01/27 11:00:24;;;;;;;170.67;56.03;;;;;;;;;;4953442;28;20450;-77
2022/01/27 11:02:56;;;;;;;163.80;55.87;;;;;;;;;;4953595;28;20426;-77
2022/01/27 11:05:26;;;;;;;148.63;54.20;;;;;;;;;;4953372;28;20425;-77
2022/01/27 11:07:53;;;;;;;164.07;55.37;;;;;;;;;;4952468;28;20414;-77
2022/01/27 11:10:20;;;;;;;162.50;55.80;;;;;;;;;;4953367;28;20434;-77
2022/01/27 11:12:47;;;;;;;162.53;56.30;;;;;;;;;;4969300;28;21714;-78
2022/01/27 11:15:16;;;;;;;158.87;54.97;;;;;;;;;;4968034;28;21290;-78
2022/01/27 11:17:44;;;;;;;151.67;52.07;;;;;;;;;;4951942;28;20429;-78
2022/01/27 11:27:45;;;;;;;137.97;50.33;;;;;;;;;;4953209;28;21389;-77
2022/01/27 11:30:14;;;;;;;144.87;51.83;;;;;;;;;;4953547;28;21355;-77
2022/01/27 11:32:42;;;;;;;148.50;51.30;;;;;;;;;;4949533;28;20445;-78
2022/01/27 11:35:22;;;;;;;154.63;53.47;;;;;;;;;;4952599;28;20422;-77
2022/01/27 11:37:52;;;;;;;142.33;50.10;;;;;;;;;;4949846;28;21400;-77
2022/01/27 11:40:20;;;;;;;148.10;51.87;;;;;;;;;;4948882;28;20465;-77
2022/01/27 11:42:55;;;;;;;143.30;52.87;;;;;;;;;;4947058;28;20448;-77
2022/01/27 11:45:21;;;;;;;161.33;55.20;;;;;;;;;;4952161;28;20522;-76
2022/01/27 11:47:49;;;;;;;151.50;53.37;;;;;;;;;;4952550;28;20458;-76
2022/01/27 11:50:31;;;;;;;156.80;55.07;;;;;;;;;;4952413;28;20407;-77
2022/01/27 11:52:57;;;;;;;156.17;54.10;;;;;;;;;;4950283;28;21233;-77
2022/01/27 11:55:26;;;;;;;181.20;60.43;;;;;;;;;;4953351;28;20410;-76
2022/01/27 11:57:56;;;;;;;181.50;62.40;;;;;;;;;;4954385;28;20557;-77
2022/01/27 12:00:24;;;;;;;176.67;58.03;;;;;;;;;;4951166;28;20438;-76
2022/01/27 12:03:02;;;;;;;168.57;59.50;;;;;;;;;;4968175;28;21060;-76
2022/01/27 12:05:29;;;;;;;167.00;57.90;;;;;;;;;;4953440;28;20437;-77
2022/01/27 12:08:16;;;;;;;194.30;65.50;;;;;;;;;;4965264;28;20772;-76
2022/01/27 12:11:11;;;;;;;173.27;61.50;;;;;;;;;;4953690;28;21317;-76
2022/01/27 12:13:42;;;;;;;171.93;61.50;;;;;;;;;;4963144;28;20439;-77
2022/01/27 12:16:26;;;;;;;153.60;54.93;;;;;;;;;;4950354;28;20422;-76
2022/01/27 12:18:59;;;;;;;154.20;57.77;;;;;;;;;;4949559;28;20775;-76
2022/01/27 12:21:55;;;;;;;136.10;50.80;;;;;;;;;;4967156;28;20568;-75
2022/01/27 12:24:27;;;;;;;160.17;60.00;;;;;;;;;;4955019;28;20662;-76
2022/01/27 12:26:55;;;;;;;156.17;58.80;;;;;;;;;;4951461;28;20572;-76
2022/01/27 12:29:22;;;;;;;159.13;60.23;;;;;;;;;;4950061;28;20441;-76
2022/01/27 12:31:49;;;;;;;157.17;58.97;;;;;;;;;;4950926;28;20538;-76
2022/01/27 12:34:15;;;;;;;154.93;59.00;;;;;;;;;;4954226;28;20442;-76
2022/01/27 12:37:01;;;;;;;162.60;58.50;;;;;;;;;;4952340;28;20419;-76
2022/01/27 12:39:29;;;;;;;146.53;55.47;;;;;;;;;;4951495;28;20414;-76
2022/01/27 12:41:55;;;;;;;149.53;54.67;;;;;;;;;;4951435;28;20520;-75
2022/01/27 12:44:23;;;;;;;152.50;55.20;;;;;;;;;;4949006;28;20422;-77
2022/01/27 12:47:10;;;;;;;146.50;57.00;;;;;;;;;;4947742;28;20434;-76
2022/01/27 12:49:44;;;;;;;147.73;52.90;;;;;;;;;;4949366;28;20445;-77
2022/01/27 12:52:18;;;;;;;138.53;54.33;;;;;;;;;;4950036;28;20442;-77
2022/01/27 12:54:45;;;;;;;134.80;52.93;;;;;;;;;;4967741;28;21038;-77
2022/01/27 12:57:13;;;;;;;137.33;50.23;;;;;;;;;;4946697;28;21025;-77
2022/01/27 12:59:43;;;;;;;126.10;51.60;;;;;;;;;;4951552;28;20438;-77
2022/01/27 13:02:10;;;;;;;132.93;51.67;;;;;;;;;;4950795;28;20551;-77
2022/01/27 13:04:37;;;;;;;108.93;47.67;;;;;;;;;;4950005;28;20426;-78
2022/01/27 13:07:03;;;;;;;122.37;47.50;;;;;;;;;;4946910;28;20420;-77
2022/01/27 13:09:32;;;;;;;123.90;52.30;;;;;;;;;;4950442;28;21396;-77
2022/01/27 13:12:00;;;;;;;122.63;49.30;;;;;;;;;;4950893;28;20450;-77
2022/01/27 13:14:27;;;;;;;130.10;52.87;;;;;;;;;;4951114;28;20540;-77
2022/01/27 13:17:06;;;;;;;128.87;53.63;;;;;;;;;;4950205;28;20422;-76
2022/01/27 13:19:45;;;;;;;128.73;49.00;;;;;;;;;;4948091;28;20563;-78
2022/01/27 13:22:17;;;;;;;117.93;47.10;;;;;;;;;;4952504;28;20434;-78
2022/01/27 13:24:44;;;;;;;105.67;44.60;;;;;;;;;;4951797;28;20422;-79
2022/01/27 13:27:12;;;;;;;108.83;46.00;;;;;;;;;;4951313;28;20429;-77
2022/01/27 13:29:47;;;;;;;110.47;47.53;;;;;;;;;;4949770;28;20438;-78
2022/01/27 13:32:15;;;;;;;114.77;46.27;;;;;;;;;;4950332;28;20453;-78
2022/01/27 13:34:42;;;;;;;126.23;47.40;;;;;;;;;;4951008;28;21234;-78
2022/01/27 13:37:08;;;;;;;110.77;45.87;;;;;;;;;;4945256;28;20497;-78
2022/01/27 13:42:15;;;;;;;109.33;44.57;;;;;;;;;;4953265;28;20478;-78
2022/01/27 13:44:53;;;;;;;116.43;46.53;;;;;;;;;;4949072;28;21587;-79
2022/01/27 13:47:24;;;;;;;109.97;45.03;;;;;;;;;;4951678;28;20472;-78
2022/01/27 13:49:51;;;;;;;108.00;44.60;;;;;;;;;;4950901;28;21406;-78
2022/01/27 13:52:17;;;;;;;116.43;44.97;;;;;;;;;;4949536;28;20545;-78
2022/01/27 13:54:45;;;;;;;101.23;41.70;;;;;;;;;;4948850;28;20705;-78
2022/01/27 13:57:19;;;;;;;98.40;41.47;;;;;;;;;;4950704;28;20605;-78
2022/01/27 14:00:20;;;;;;;107.73;45.47;;;;;;;;;;4950184;28;21435;-79
2022/01/27 14:02:48;;;;;;;99.63;40.97;;;;;;;;;;4950161;28;20427;-79
2022/01/27 14:05:17;;;;;;;103.77;44.03;;;;;;;;;;4950505;28;21445;-78
2022/01/27 14:07:43;;;;;;;105.07;40.80;;;;;;;;;;4949660;28;20429;-79
2022/01/27 14:10:25;;;;;;;95.97;43.20;;;;;;;;;;4948428;28;20481;-78
2022/01/27 14:13:01;;;;;;;106.30;43.80;;;;;;;;;;4962340;28;20568;-78
2022/01/27 14:15:34;;;;;;;101.37;42.83;;;;;;;;;;4952777;28;20418;-78
2022/01/27 14:18:08;;;;;;;101.70;42.07;;;;;;;;;;4955227;28;21293;-78
2022/01/27 14:20:34;;;;;;;114.63;45.00;;;;;;;;;;4955326;28;20426;-78
2022/01/27 14:23:12;;;;;;;106.33;43.87;;;;;;;;;;4951314;28;21318;-78
2022/01/27 14:25:45;;;;;;;117.50;46.20;;;;;;;;;;4954725;28;20422;-78
2022/01/27 14:28:11;;;;;;;105.17;43.97;;;;;;;;;;4954752;28;20434;-78
2022/01/27 14:30:42;;;;;;;102.43;43.70;;;;;;;;;;4951666;28;20434;-78
2022/01/27 14:33:08;;;;;;;109.40;45.83;;;;;;;;;;4951978;28;21335;-78
2022/01/27 14:35:34;;;;;;;108.37;44.83;;;;;;;;;;4952831;28;21264;-78
2022/01/27 14:38:00;;;;;;;104.87;42.40;;;;;;;;;;4953038;28;20430;-77
2022/01/27 14:40:26;;;;;;;99.27;43.30;;;;;;;;;;4948657;28;20421;-78
2022/01/27 14:42:57;;;;;;;106.80;44.67;;;;;;;;;;4952041;28;20438;-77
2022/01/27 14:45:23;;;;;;;106.53;45.03;;;;;;;;;;4951279;28;21353;-77
2022/01/27 14:47:52;;;;;;;116.80;46.27;;;;;;;;;;4953203;28;20423;-78
2022/01/27 14:50:18;;;;;;;114.10;46.20;;;;;;;;;;4954046;28;20466;-77
2022/01/27 14:52:45;;;;;;;103.60;44.33;;;;;;;;;;4953788;28;21656;-78
2022/01/27 14:55:12;;;;;;;105.00;45.13;;;;;;;;;;4952458;28;20540;-78
2022/01/27 14:57:38;;;;;;;104.80;44.30;;;;;;;;;;4952482;28;20426;-78
2022/01/27 15:00:05;;;;;;;110.67;45.70;;;;;;;;;;4949184;28;20441;-78
2022/01/27 15:02:31;;;;;;;106.53;45.20;;;;;;;;;;4953775;28;20442;-78
2022/01/27 15:04:57;;;;;;;114.27;48.83;;;;;;;;;;4952191;28;21399;-78